Manda, Texas
Current Conditions -  °F | °C
As of 10:35 AM on Friday 31 Oct 2014 (Local Time) from KEDC Reporting Station
Clear Clear  
Wind Chill: 66°   Ceiling: Unl
Heat Index: 66°   Visibility: 10mi
Dew Point: 46°   Wind: 16mph
Humidity: 49%   Direction: 10°N
Pressure: 30.29"   Gusts: 21mph
Location:  30.352°N, 97.5205°W
Report Text: KEDC 311535Z AUTO 01014G18KT 10SM CLR 19/08 A3029 RMK AO2
Loading
Personal Weather Stations






























Interactive Weather Map
Tropical Storm Tracking
New forecast layout! Learn more

10-Day Weather Forecast

Advertisements
Track Severe Weather on mobile